Terminal Aerodrome Forecast
Issued by NWS Boise, ID

Home | Current Version | Previous Version | Text Only | Print | Product List | Glossary On
Versions: 1 2 3 4 5 6 7 8 9 10 11 12 13 14 15 16 17 18 19 20 21 22 23 24 25 26 27 28
000
FTUS45 KBOI 172340
TAFBNO
TAF
KBNO 172340Z 1800/1824 21020G30KT P6SM BKN035 OVC050
     FM180600 23015G22KT P6SM -SHSN SCT025 BKN035
      TEMPO 1806/1810 -SHSN OVC025
     FM181500 23015G25KT P6SM VCSH SCT025 BKN035
      TEMPO 1815/1819 -SHSN OVC025
     FM181900 23015G25KT P6SM VCSH SCT025 BKN035
      TEMPO 1819/1823 -SHSN OVC025=

USA.gov is the U.S. government's official web portal to all federal, state and local government web resources and services.